Fargo, North Dakota
Current Conditions -  °F | °C
As of 12:53 AM on Tuesday 21 Oct 2014 (Local Time) from KFAR Reporting Station
Clear Clear  
Wind Chill: 41°   Ceiling: Unl
Heat Index: 46°   Visibility: 10mi
Dew Point: 37°   Wind: 10mph
Humidity: 71%   Direction: 110°ESE
Pressure: 30.04"   Gusts: NA
Location:  46.88°N, 96.78°W
Report Text: KFAR 210553Z 11009KT 10SM CLR 08/03 A3004 RMK AO2 SLP178 T00780028 10128 20072 401830017 50003
Loading
Personal Weather Stations






























Interactive Weather Map
Tropical Storm Tracking
New forecast layout! Learn more

10-Day Weather Forecast

Advertisements
Track Severe Weather on mobile